Time;durP1;ratioP1;P1;durP2;ratioP2;P2;SDS_P1;SDS_P2;PMS_P1;PMS_P2;Temp;Humidity;BMP_temperature;BMP_pressure;BME280_temperature;BME280_humidity;BME280_pressure;Samples;Min_cycle;Max_cycle;Signal;HPM_P1;HPM_P2
2023/02/10 00:01:02;;;;;;;34.67;15.45;;;2.00;99.90;;;;;;5028196;28;20053;-60
2023/02/10 00:03:29;;;;;;;37.42;16.42;;;2.00;99.90;;;;;;4994893;28;20041;-61
2023/02/10 00:05:55;;;;;;;40.00;16.00;;;1.90;99.90;;;;;;5024451;28;20053;-61
2023/02/10 00:08:22;;;;;;;29.60;14.88;;;1.90;99.90;;;;;;5019954;28;20054;-61
2023/02/10 00:10:49;;;;;;;33.65;14.40;;;1.80;99.90;;;;;;4998948;28;20061;-62
2023/02/10 00:13:16;;;;;;;36.90;13.55;;;1.80;99.90;;;;;;5027952;28;20491;-61
2023/02/10 00:15:42;;;;;;;32.22;14.00;;;1.80;99.90;;;;;;5010139;28;20459;-61
2023/02/10 00:18:09;;;;;;;33.28;14.05;;;1.80;99.90;;;;;;5027941;28;20562;-61
2023/02/10 00:20:36;;;;;;;33.40;14.63;;;1.80;99.90;;;;;;5009870;28;20129;-61
2023/02/10 00:23:04;;;;;;;32.63;13.43;;;1.80;99.90;;;;;;5027733;28;20419;-61
2023/02/10 00:25:31;;;;;;;41.10;14.80;;;1.70;99.90;;;;;;5027320;28;20673;-61
2023/02/10 00:27:58;;;;;;;28.38;13.10;;;1.70;99.90;;;;;;5027976;28;20140;-61
2023/02/10 00:30:27;;;;;;;32.85;11.50;;;2.10;99.90;;;;;;5027912;28;20088;-62
2023/02/10 00:32:53;;;;;;;24.48;11.35;;;1.60;99.90;;;;;;5027558;28;20050;-61
2023/02/10 00:35:22;;;;;;;32.15;13.88;;;1.60;99.90;;;;;;5027644;28;20053;-59
2023/02/10 00:37:49;;;;;;;35.53;16.20;;;1.50;99.90;;;;;;5027445;28;20442;-61
2023/02/10 00:40:16;;;;;;;38.65;14.40;;;1.50;99.90;;;;;;5027387;28;20100;-61
2023/02/10 00:42:43;;;;;;;33.00;13.63;;;1.50;99.90;;;;;;5028589;28;20148;-60
2023/02/10 00:45:09;;;;;;;31.23;13.45;;;1.50;99.90;;;;;;5012370;28;20045;-61
2023/02/10 00:47:36;;;;;;;30.10;13.18;;;1.50;99.90;;;;;;5028456;28;20061;-60
2023/02/10 00:50:03;;;;;;;32.08;13.75;;;1.50;99.90;;;;;;5029918;28;20145;-60
2023/02/10 00:52:30;;;;;;;30.90;13.15;;;1.50;99.90;;;;;;5025703;28;20045;-61
2023/02/10 00:54:57;;;;;;;35.22;14.65;;;1.40;99.90;;;;;;5028476;28;20062;-62
2023/02/10 00:57:23;;;;;;;36.75;14.95;;;1.40;99.90;;;;;;5026709;28;20052;-61
2023/02/10 00:59:50;;;;;;;28.75;13.15;;;1.40;99.90;;;;;;5027490;28;20520;-61
2023/02/10 01:02:17;;;;;;;37.15;15.75;;;1.40;99.90;;;;;;5027763;28;20055;-61
2023/02/10 01:04:43;;;;;;;36.22;14.73;;;1.50;99.90;;;;;;5027813;28;20079;-60
2023/02/10 01:07:10;;;;;;;35.03;14.27;;;1.30;99.90;;;;;;5027795;28;20042;-61
2023/02/10 01:09:37;;;;;;;42.88;15.00;;;1.30;99.90;;;;;;5027915;28;20057;-61
2023/02/10 01:12:04;;;;;;;39.20;16.23;;;1.20;99.90;;;;;;5027515;28;20045;-61
2023/02/10 01:14:31;;;;;;;37.65;15.93;;;1.30;99.90;;;;;;5027982;28;20077;-60
2023/02/10 01:16:58;;;;;;;41.25;15.43;;;1.20;99.90;;;;;;5027914;28;20140;-61
2023/02/10 01:19:25;;;;;;;37.83;14.25;;;1.20;99.90;;;;;;5027455;28;20050;-61
2023/02/10 01:21:51;;;;;;;33.40;12.43;;;1.20;99.90;;;;;;5027710;28;20052;-61
2023/02/10 01:24:18;;;;;;;37.42;15.88;;;1.20;99.90;;;;;;5027121;28;20432;-62
2023/02/10 01:26:45;;;;;;;42.75;17.65;;;1.10;99.90;;;;;;5029205;28;20152;-62
2023/02/10 01:29:12;;;;;;;42.80;16.15;;;1.10;99.90;;;;;;5029265;28;20041;-61
2023/02/10 01:31:38;;;;;;;36.80;14.48;;;1.10;99.90;;;;;;5029382;28;20053;-61
2023/02/10 01:34:05;;;;;;;28.45;13.75;;;1.10;99.90;;;;;;5028832;28;20046;-60
2023/02/10 01:36:32;;;;;;;30.92;14.02;;;1.00;99.90;;;;;;5029290;28;20077;-60
2023/02/10 01:38:59;;;;;;;39.03;15.77;;;1.00;99.90;;;;;;5028857;28;20132;-60
2023/02/10 01:41:25;;;;;;;33.80;14.63;;;1.00;99.90;;;;;;5028898;28;20566;-60
2023/02/10 01:43:57;;;;;;;41.28;14.18;;;1.00;99.90;;;;;;5028611;28;20236;-61
2023/02/10 01:46:24;;;;;;;35.20;15.68;;;1.00;99.90;;;;;;5011307;28;20104;-61
2023/02/10 01:48:51;;;;;;;38.85;17.00;;;1.00;99.90;;;;;;5028701;28;20137;-62
2023/02/10 01:51:19;;;;;;;33.92;15.73;;;1.00;99.90;;;;;;5028797;28;20057;-61
2023/02/10 01:53:46;;;;;;;41.28;15.82;;;1.00;99.90;;;;;;4994157;28;20046;-61
2023/02/10 01:56:12;;;;;;;31.25;15.43;;;1.00;99.90;;;;;;4995098;28;20115;-60
2023/02/10 01:58:41;;;;;;;27.83;13.07;;;0.90;99.90;;;;;;4994863;28;20114;-61
2023/02/10 02:01:08;;;;;;;31.58;13.35;;;0.90;99.90;;;;;;5011436;28;20075;-61
2023/02/10 02:03:35;;;;;;;38.17;12.88;;;0.90;99.90;;;;;;5028545;28;20065;-60
2023/02/10 02:06:02;;;;;;;32.00;14.55;;;0.80;99.90;;;;;;5028528;28;20099;-60
2023/02/10 02:08:30;;;;;;;29.63;15.70;;;0.90;99.90;;;;;;5029139;28;20069;-62
2023/02/10 02:11:32;;;;;;;33.05;16.50;;;0.90;99.90;;;;;;5010789;28;20103;-61
2023/02/10 02:14:07;;;;;;;33.05;13.57;;;0.80;99.90;;;;;;5010751;28;20512;-60
2023/02/10 02:16:40;;;;;;;39.70;15.02;;;0.80;99.90;;;;;;5025161;28;20053;-58
2023/02/10 02:19:28;;;;;;;33.05;13.13;;;0.80;99.90;;;;;;5028279;28;20509;-61
2023/02/10 02:22:36;;;;;;;37.28;15.93;;;0.80;99.90;;;;;;5009383;28;20319;-60
2023/02/10 02:25:16;;;;;;;33.75;14.48;;;0.80;99.90;;;;;;5010622;28;20041;-60
2023/02/10 02:27:54;;;;;;;34.97;13.55;;;0.80;99.90;;;;;;5010817;28;20720;-61
2023/02/10 02:30:44;;;;;;;28.65;14.65;;;0.80;99.90;;;;;;5010392;28;20042;-60
2023/02/10 02:33:18;;;;;;;33.42;14.00;;;0.80;99.90;;;;;;5011235;28;20136;-60
2023/02/10 02:36:07;;;;;;;28.10;11.63;;;0.80;99.90;;;;;;5010746;28;20183;-62
2023/02/10 02:38:38;;;;;;;26.20;12.13;;;0.80;99.90;;;;;;5028102;28;20061;-62
2023/02/10 02:41:05;;;;;;;32.17;12.27;;;0.70;99.90;;;;;;5027740;28;20041;-62
2023/02/10 02:43:32;;;;;;;32.70;12.77;;;0.60;99.90;;;;;;4678185;28;9999752;-62
2023/02/10 02:46:19;;;;;;;31.38;13.18;;;0.60;99.90;;;;;;5025907;28;20055;-61
2023/02/10 02:49:15;;;;;;;36.92;13.70;;;0.60;99.90;;;;;;5013049;28;20050;-62
2023/02/10 02:51:55;;;;;;;28.70;15.00;;;0.60;99.90;;;;;;5012789;28;20129;-61
2023/02/10 02:54:27;;;;;;;26.95;13.38;;;0.60;99.90;;;;;;5012132;28;20084;-62
2023/02/10 02:57:29;;;;;;;29.70;13.73;;;0.60;99.90;;;;;;5010241;28;20424;-62
2023/02/10 03:00:19;;;;;;;30.10;12.80;;;0.60;99.90;;;;;;4993270;28;20054;-61
2023/02/10 03:02:45;;;;;;;32.95;13.82;;;0.60;99.90;;;;;;5020912;28;20197;-60
2023/02/10 03:05:21;;;;;;;29.70;12.60;;;0.50;99.90;;;;;;5027644;28;20045;-60
2023/02/10 03:07:48;;;;;;;30.75;15.02;;;0.50;99.90;;;;;;5027318;28;20055;-60
2023/02/10 03:10:16;;;;;;;28.60;14.40;;;0.50;99.90;;;;;;5026977;28;20128;-60
2023/02/10 03:12:42;;;;;;;46.60;15.45;;;0.50;99.90;;;;;;5027633;28;20050;-61
2023/02/10 03:15:11;;;;;;;37.20;15.70;;;0.50;99.90;;;;;;5027639;28;20041;-62
2023/02/10 03:17:38;;;;;;;30.40;13.20;;;0.50;99.90;;;;;;5027530;28;20145;-61
2023/02/10 03:20:05;;;;;;;30.92;14.55;;;0.50;99.90;;;;;;5027474;28;20493;-62
2023/02/10 03:22:32;;;;;;;34.42;15.35;;;0.50;99.90;;;;;;5009822;28;20073;-61
2023/02/10 03:24:58;;;;;;;30.73;14.98;;;0.40;99.90;;;;;;5027389;28;20056;-62
2023/02/10 03:27:25;;;;;;;30.40;14.15;;;0.40;99.90;;;;;;5009973;28;20268;-62
2023/02/10 03:29:52;;;;;;;20.23;10.15;;;0.40;99.90;;;;;;5027542;28;20046;-61
2023/02/10 03:32:19;;;;;;;28.10;11.00;;;0.30;99.90;;;;;;5027269;28;20053;-61
2023/02/10 03:34:46;;;;;;;19.67;9.93;;;0.30;99.90;;;;;;5027379;28;20564;-62
2023/02/10 03:37:13;;;;;;;20.08;9.02;;;0.30;99.90;;;;;;5027138;28;20053;-62
2023/02/10 03:39:40;;;;;;;20.65;10.85;;;0.30;99.90;;;;;;5027155;28;20057;-62
2023/02/10 03:42:06;;;;;;;31.00;10.23;;;0.40;99.90;;;;;;5027350;28;20136;-61
2023/02/10 03:44:33;;;;;;;26.67;10.50;;;0.40;99.90;;;;;;5027276;28;20041;-62
2023/02/10 03:47:00;;;;;;;20.60;11.60;;;0.40;99.90;;;;;;5027526;28;20080;-61
2023/02/10 03:49:27;;;;;;;19.33;9.13;;;0.40;99.90;;;;;;5026963;28;20092;-61
2023/02/10 03:51:53;;;;;;;20.80;9.68;;;0.40;99.90;;;;;;5027401;28;20443;-62
2023/02/10 03:54:20;;;;;;;25.48;11.18;;;0.40;99.90;;;;;;5027032;28;20132;-61
2023/02/10 03:56:47;;;;;;;22.05;11.00;;;0.30;99.90;;;;;;5010075;28;20053;-61
2023/02/10 03:59:13;;;;;;;21.15;10.07;;;0.30;99.90;;;;;;5027037;28;20440;-61
2023/02/10 04:01:40;;;;;;;17.27;9.75;;;0.30;99.90;;;;;;5027348;28;20132;-62
2023/02/10 04:04:07;;;;;;;21.02;10.35;;;0.30;99.90;;;;;;5009362;28;20053;-61
2023/02/10 04:06:34;;;;;;;24.52;11.13;;;0.30;99.90;;;;;;5027077;28;20059;-62
2023/02/10 04:09:00;;;;;;;21.95;9.88;;;0.30;99.90;;;;;;5026975;28;20122;-62
2023/02/10 04:11:27;;;;;;;21.70;10.32;;;0.30;99.90;;;;;;5027598;28;20455;-62
2023/02/10 04:13:54;;;;;;;16.80;9.35;;;0.30;99.90;;;;;;5028834;28;20135;-61
2023/02/10 04:16:27;;;;;;;19.55;9.05;;;0.30;99.90;;;;;;5029398;28;20409;-62
2023/02/10 04:18:54;;;;;;;26.85;9.38;;;0.30;99.90;;;;;;5030822;28;20077;-63
2023/02/10 04:21:20;;;;;;;16.05;8.18;;;0.40;99.90;;;;;;5032018;28;20041;-61
2023/02/10 04:23:47;;;;;;;22.50;8.85;;;0.30;99.90;;;;;;5032980;28;20253;-62
2023/02/10 04:26:14;;;;;;;19.15;9.02;;;0.30;99.90;;;;;;5030883;28;20049;-61
2023/02/10 04:28:41;;;;;;;19.38;9.15;;;0.30;99.90;;;;;;5030422;28;20068;-64
2023/02/10 04:31:09;;;;;;;21.42;10.45;;;0.20;99.90;;;;;;5030564;28;20045;-62
2023/02/10 04:33:36;;;;;;;20.10;9.73;;;0.10;99.90;;;;;;5030460;28;20050;-62
2023/02/10 04:36:03;;;;;;;26.30;9.57;;;0.20;99.90;;;;;;5029227;28;20049;-62
2023/02/10 04:38:30;;;;;;;24.38;9.23;;;0.20;99.90;;;;;;5030440;28;20079;-61
2023/02/10 04:40:57;;;;;;;25.17;9.77;;;0.20;99.90;;;;;;5029771;28;20049;-61
2023/02/10 04:43:24;;;;;;;21.90;10.00;;;0.20;99.90;;;;;;5030154;28;20125;-61
2023/02/10 04:45:50;;;;;;;21.52;9.27;;;0.10;99.90;;;;;;5029556;28;20496;-61
2023/02/10 04:48:19;;;;;;;18.65;8.30;;;0.10;99.90;;;;;;5030042;28;20087;-62
2023/02/10 04:50:46;;;;;;;17.08;7.65;;;0.10;99.90;;;;;;5029725;28;20452;-61
2023/02/10 04:53:13;;;;;;;16.60;7.97;;;0.00;99.90;;;;;;5029865;28;20064;-62
2023/02/10 04:55:39;;;;;;;19.83;8.40;;;0.00;99.90;;;;;;5029542;28;20049;-61
2023/02/10 04:58:06;;;;;;;20.45;8.48;;;0.00;99.90;;;;;;5029924;28;20053;-61
2023/02/10 05:00:33;;;;;;;15.65;8.68;;;0.00;99.90;;;;;;5029542;28;20073;-61
2023/02/10 05:03:00;;;;;;;23.52;7.70;;;0.10;99.90;;;;;;5029863;28;20053;-61
2023/02/10 05:05:27;;;;;;;16.35;8.63;;;0.10;99.90;;;;;;5029515;28;20133;-61
2023/02/10 05:07:54;;;;;;;26.80;9.80;;;0.10;99.90;;;;;;5029912;28;20132;-61
2023/02/10 05:10:20;;;;;;;16.52;7.90;;;0.00;99.90;;;;;;5029532;28;20066;-60
2023/02/10 05:12:47;;;;;;;14.32;6.32;;;0.00;99.90;;;;;;5011868;28;20128;-61
2023/02/10 05:15:14;;;;;;;15.48;7.75;;;0.00;99.90;;;;;;5029072;28;20132;-62
2023/02/10 05:17:41;;;;;;;18.70;8.85;;;0.00;99.90;;;;;;5029483;28;20046;-61
2023/02/10 05:20:08;;;;;;;17.80;9.40;;;0.00;99.90;;;;;;5011819;28;20137;-61
2023/02/10 05:22:38;;;;;;;24.02;10.32;;;0.00;99.90;;;;;;5011501;28;20144;-62
2023/02/10 05:25:06;;;;;;;25.33;9.00;;;0.00;99.90;;;;;;5029240;28;20049;-61
2023/02/10 05:27:33;;;;;;;19.75;8.98;;;0.00;99.90;;;;;;5028892;28;20050;-60
2023/02/10 05:30:00;;;;;;;22.48;9.52;;;0.00;99.90;;;;;;5029190;28;20052;-60
2023/02/10 05:32:26;;;;;;;19.60;8.55;;;0.00;99.90;;;;;;5028509;28;20050;-61
2023/02/10 05:34:53;;;;;;;16.25;8.85;;;0.00;99.90;;;;;;5028922;28;20518;-61
2023/02/10 05:37:20;;;;;;;22.30;8.63;;;0.10;99.90;;;;;;5029023;28;20055;-61
2023/02/10 05:39:47;;;;;;;16.60;8.75;;;0.00;99.90;;;;;;5028958;28;20462;-61
2023/02/10 05:42:13;;;;;;;15.00;8.27;;;-0.10;99.90;;;;;;5026834;28;20073;-61
2023/02/10 05:44:40;;;;;;;17.73;7.85;;;0.00;99.90;;;;;;5021467;28;20053;-61
2023/02/10 05:47:07;;;;;;;16.58;8.90;;;-0.10;99.90;;;;;;5028934;28;20416;-61
2023/02/10 05:49:34;;;;;;;19.73;9.93;;;0.00;99.90;;;;;;5029835;28;20051;-61
2023/02/10 05:52:00;;;;;;;29.40;9.43;;;0.10;99.90;;;;;;5029205;28;20049;-61
2023/02/10 05:54:27;;;;;;;15.02;8.55;;;0.20;99.90;;;;;;5029204;28;20050;-60
2023/02/10 05:56:54;;;;;;;19.92;8.95;;;0.10;99.90;;;;;;5028774;28;20041;-61
2023/02/10 05:59:21;;;;;;;16.23;7.97;;;0.00;99.90;;;;;;5028619;28;20199;-60
2023/02/10 06:01:47;;;;;;;15.63;8.30;;;0.00;99.90;;;;;;5028137;28;20137;-60
2023/02/10 06:04:14;;;;;;;17.10;8.35;;;0.00;99.90;;;;;;5010377;28;20100;-61
2023/02/10 06:06:41;;;;;;;17.00;7.85;;;0.00;99.90;;;;;;5028114;28;20132;-61
2023/02/10 06:09:08;;;;;;;19.05;8.65;;;0.00;99.90;;;;;;5027918;28;20052;-61
2023/02/10 06:11:34;;;;;;;26.25;10.77;;;0.00;99.90;;;;;;5028378;28;20178;-61
2023/02/10 06:14:01;;;;;;;23.27;9.27;;;0.00;99.90;;;;;;5027773;28;20051;-61
2023/02/10 06:16:28;;;;;;;22.40;10.25;;;0.00;99.90;;;;;;5020976;28;20065;-60
2023/02/10 06:18:55;;;;;;;16.75;8.95;;;0.00;99.90;;;;;;5023990;28;20137;-61
2023/02/10 06:21:22;;;;;;;23.67;9.77;;;0.10;99.90;;;;;;5027891;28;20609;-60
2023/02/10 06:23:50;;;;;;;14.93;8.75;;;0.00;99.90;;;;;;5027430;28;20100;-62
2023/02/10 06:26:16;;;;;;;13.75;7.10;;;-0.10;99.90;;;;;;5028137;28;20085;-61
2023/02/10 06:28:43;;;;;;;13.50;7.05;;;-0.10;99.90;;;;;;5010001;28;20492;-61
2023/02/10 06:31:10;;;;;;;21.27;8.65;;;-0.20;99.90;;;;;;5027876;28;20573;-59
2023/02/10 06:33:37;;;;;;;18.73;9.55;;;-0.20;99.90;;;;;;5027297;28;20045;-61
2023/02/10 06:36:05;;;;;;;23.90;9.07;;;-0.20;99.90;;;;;;5027804;28;20045;-61
2023/02/10 06:38:33;;;;;;;19.77;9.70;;;-0.60;99.90;;;;;;5027921;28;20053;-61
2023/02/10 06:40:59;;;;;;;17.80;8.23;;;-0.20;99.90;;;;;;5027506;28;20061;-61
2023/02/10 06:43:26;;;;;;;19.23;8.18;;;-0.20;99.90;;;;;;5026261;28;20099;-61
2023/02/10 06:45:53;;;;;;;18.45;9.23;;;-0.10;99.90;;;;;;5026317;28;20037;-62
2023/02/10 06:48:20;;;;;;;21.85;9.02;;;-0.10;99.90;;;;;;5026264;28;20061;-61
2023/02/10 06:50:47;;;;;;;15.02;8.63;;;-0.10;99.90;;;;;;5027575;28;20041;-62
2023/02/10 06:53:13;;;;;;;19.67;7.63;;;0.00;99.90;;;;;;5027677;28;20056;-61
2023/02/10 06:55:40;;;;;;;22.27;8.77;;;-0.10;99.90;;;;;;5026957;28;20080;-61
2023/02/10 06:58:07;;;;;;;23.90;10.43;;;-0.10;99.90;;;;;;5027773;28;20723;-60
2023/02/10 07:00:34;;;;;;;21.60;9.95;;;-0.10;99.90;;;;;;5026795;28;20049;-61
2023/02/10 07:03:00;;;;;;;19.20;9.18;;;-0.10;99.90;;;;;;5027115;28;20519;-61
2023/02/10 07:05:27;;;;;;;14.48;8.75;;;-0.10;99.90;;;;;;5026680;28;20084;-61
2023/02/10 07:07:54;;;;;;;16.55;9.18;;;-0.10;99.90;;;;;;5027290;28;20128;-61
2023/02/10 07:10:21;;;;;;;28.38;9.70;;;0.00;99.90;;;;;;5026878;28;20497;-62
2023/02/10 07:12:48;;;;;;;15.55;8.57;;;0.00;99.90;;;;;;5009667;28;20063;-61
2023/02/10 07:15:16;;;;;;;25.80;9.65;;;0.00;99.90;;;;;;5032489;28;20075;-61
2023/02/10 07:17:44;;;;;;;17.70;9.35;;;0.00;99.90;;;;;;5014148;28;20041;-61
2023/02/10 07:20:12;;;;;;;29.50;11.48;;;0.00;99.90;;;;;;5026471;28;20057;-61
2023/02/10 07:22:39;;;;;;;26.08;11.10;;;0.00;99.90;;;;;;5026723;28;20091;-61
2023/02/10 07:25:06;;;;;;;22.05;9.70;;;0.10;99.90;;;;;;5026504;28;20050;-61
2023/02/10 07:27:33;;;;;;;24.45;10.65;;;0.10;99.90;;;;;;5026838;28;20143;-61
2023/02/10 07:29:59;;;;;;;20.75;9.63;;;0.20;99.90;;;;;;5026637;28;20095;-61
2023/02/10 07:32:26;;;;;;;20.67;10.32;;;0.20;99.90;;;;;;5026832;28;20465;-61
2023/02/10 07:34:53;;;;;;;18.77;9.35;;;0.30;99.90;;;;;;5026220;28;20050;-61
2023/02/10 07:37:20;;;;;;;19.52;9.77;;;0.20;99.90;;;;;;5026947;28;20049;-60
2023/02/10 07:39:46;;;;;;;21.65;11.73;;;0.30;99.90;;;;;;5008685;28;20049;-60
2023/02/10 07:42:13;;;;;;;17.55;10.25;;;0.30;99.90;;;;;;5008645;28;20480;-61
2023/02/10 07:44:40;;;;;;;22.08;9.95;;;0.30;99.90;;;;;;5026583;28;20451;-61
2023/02/10 07:47:09;;;;;;;19.38;10.27;;;0.40;99.90;;;;;;5025963;28;20057;-60
2023/02/10 07:49:36;;;;;;;15.05;8.75;;;0.40;99.90;;;;;;5008813;28;20749;-60
2023/02/10 07:52:02;;;;;;;22.25;10.70;;;0.40;99.90;;;;;;5025794;28;20128;-61
2023/02/10 07:54:29;;;;;;;25.92;10.48;;;0.40;99.90;;;;;;5025523;28;20153;-60
2023/02/10 07:56:56;;;;;;;24.52;9.50;;;0.40;99.90;;;;;;5028671;28;20508;-61
2023/02/10 07:59:23;;;;;;;16.52;8.80;;;0.50;99.90;;;;;;5012146;28;20468;-60
2023/02/10 08:01:50;;;;;;;21.42;10.77;;;0.60;99.90;;;;;;5029133;28;20045;-61
2023/02/10 08:04:17;;;;;;;26.13;8.70;;;0.50;99.90;;;;;;5028823;28;20115;-61
2023/02/10 08:06:43;;;;;;;18.55;7.90;;;0.60;99.90;;;;;;5028396;28;20045;-61
2023/02/10 08:09:10;;;;;;;22.55;8.50;;;0.70;99.90;;;;;;5028921;28;20055;-63
2023/02/10 08:11:37;;;;;;;16.08;10.45;;;0.80;99.90;;;;;;5010573;28;20127;-61
2023/02/10 08:14:04;;;;;;;16.25;8.35;;;0.90;99.90;;;;;;5023916;28;20095;-62
2023/02/10 08:16:31;;;;;;;13.73;8.43;;;0.90;99.90;;;;;;5028440;28;20334;-61
2023/02/10 08:18:58;;;;;;;20.38;9.02;;;1.00;99.90;;;;;;5012364;28;20042;-61
2023/02/10 08:21:26;;;;;;;14.57;8.32;;;1.00;99.90;;;;;;5029934;28;20055;-62
2023/02/10 08:23:54;;;;;;;15.40;8.43;;;1.10;99.90;;;;;;5030031;28;20050;-62
2023/02/10 08:26:22;;;;;;;16.52;8.35;;;1.10;99.90;;;;;;5029497;28;20050;-60
2023/02/10 08:28:49;;;;;;;12.95;6.70;;;1.20;99.90;;;;;;5029095;28;20091;-61
2023/02/10 08:31:16;;;;;;;18.73;8.05;;;1.30;99.90;;;;;;5030139;28;20128;-63
2023/02/10 08:33:43;;;;;;;18.98;7.82;;;1.40;99.90;;;;;;5029435;28;20103;-61
2023/02/10 08:36:13;;;;;;;13.23;7.97;;;1.40;99.90;;;;;;5009496;28;20069;-61
2023/02/10 08:38:40;;;;;;;15.18;7.60;;;1.50;99.90;;;;;;5023740;28;20096;-62
2023/02/10 08:41:07;;;;;;;17.88;8.57;;;1.50;99.90;;;;;;5028560;28;20057;-64
2023/02/10 08:43:34;;;;;;;20.65;9.18;;;1.60;99.90;;;;;;5028939;28;20053;-62
2023/02/10 08:46:01;;;;;;;17.80;8.27;;;1.80;99.90;;;;;;5029333;28;20128;-61
2023/02/10 08:48:28;;;;;;;17.40;8.55;;;1.90;99.90;;;;;;5023514;28;20148;-61
2023/02/10 08:50:54;;;;;;;18.60;6.72;;;2.00;99.90;;;;;;4996240;28;20064;-61
2023/02/10 08:53:22;;;;;;;25.10;9.15;;;2.20;99.90;;;;;;5022960;28;20064;-60
2023/02/10 08:56:15;;;;;;;20.67;7.13;;;2.40;99.90;;;;;;5028181;28;20049;-58
2023/02/10 08:58:42;;;;;;;18.00;7.22;;;2.50;99.90;;;;;;5028737;28;20069;-60
2023/02/10 09:01:17;;;;;;;14.88;6.70;;;2.60;99.90;;;;;;5029882;28;20157;-61
2023/02/10 09:03:44;;;;;;;13.77;7.18;;;2.70;99.90;;;;;;5030245;28;20517;-61
2023/02/10 09:06:19;;;;;;;13.70;8.15;;;2.80;99.90;;;;;;5030516;28;20133;-61
2023/02/10 09:08:47;;;;;;;15.18;7.05;;;3.10;99.90;;;;;;5030148;28;20052;-61
2023/02/10 09:11:15;;;;;;;10.38;6.93;;;3.00;99.90;;;;;;5022025;28;20050;-63
2023/02/10 09:13:41;;;;;;;14.88;6.93;;;3.20;99.90;;;;;;5030198;28;20457;-61
2023/02/10 09:16:08;;;;;;;18.42;7.38;;;3.40;99.90;;;;;;5029245;28;20059;-61
2023/02/10 09:18:35;;;;;;;16.63;7.28;;;3.50;99.90;;;;;;5028987;28;20087;-60
2023/02/10 09:21:02;;;;;;;23.30;9.45;;;3.60;99.90;;;;;;5028622;28;20150;-60
2023/02/10 09:23:29;;;;;;;15.85;7.20;;;3.70;99.90;;;;;;5028564;28;20143;-60
2023/02/10 09:25:57;;;;;;;18.40;7.10;;;3.90;99.90;;;;;;5027306;28;20387;-62
2023/02/10 09:28:26;;;;;;;17.52;7.38;;;4.10;99.90;;;;;;5028742;28;20591;-60
2023/02/10 09:30:53;;;;;;;17.80;8.48;;;4.10;99.90;;;;;;5027732;28;20046;-61
2023/02/10 09:33:20;;;;;;;15.40;7.40;;;4.20;99.90;;;;;;5028934;28;20080;-58
2023/02/10 09:35:46;;;;;;;16.90;7.78;;;4.30;99.90;;;;;;5028501;28;20046;-60
2023/02/10 09:38:14;;;;;;;18.00;7.30;;;4.30;99.90;;;;;;5029034;28;20163;-61
2023/02/10 09:41:19;;;;;;;20.73;8.20;;;4.40;99.90;;;;;;5028482;28;20136;-61
2023/02/10 09:43:51;;;;;;;14.85;8.00;;;4.50;99.90;;;;;;4996035;28;20060;-60
2023/02/10 09:46:43;;;;;;;19.98;8.18;;;4.60;99.90;;;;;;5010565;28;20053;-62
2023/02/10 09:49:14;;;;;;;11.35;7.65;;;4.70;99.90;;;;;;5028568;28;20051;-62
2023/02/10 09:51:47;;;;;;;13.60;7.38;;;4.80;99.90;;;;;;5007260;28;20124;-62
2023/02/10 09:54:14;;;;;;;16.35;7.03;;;4.80;99.90;;;;;;5010854;28;20413;-62
2023/02/10 09:56:41;;;;;;;17.58;7.25;;;4.90;99.90;;;;;;5010240;28;20045;-62
2023/02/10 09:59:12;;;;;;;14.55;7.43;;;5.00;99.90;;;;;;5011010;28;20131;-61
2023/02/10 10:01:45;;;;;;;21.23;8.80;;;5.10;99.90;;;;;;5010678;28;20046;-61
2023/02/10 10:04:16;;;;;;;17.90;7.75;;;5.20;99.90;;;;;;5011220;28;20092;-60
2023/02/10 10:06:45;;;;;;;18.35;6.05;;;5.20;99.90;;;;;;5028025;28;20350;-62
2023/02/10 10:09:17;;;;;;;13.98;5.88;;;5.30;99.90;;;;;;4994469;28;20049;-61
2023/02/10 10:11:49;;;;;;;14.30;5.73;;;5.40;99.90;;;;;;5010431;28;20496;-61
2023/02/10 10:14:21;;;;;;;17.73;4.90;;;5.50;99.90;;;;;;4975335;28;20057;-61
2023/02/10 10:16:57;;;;;;;9.82;3.53;;;5.70;99.90;;;;;;5023339;28;20097;-60
2023/02/10 10:19:43;;;;;;;10.70;4.18;;;5.80;99.90;;;;;;5008143;28;20417;-61
2023/02/10 10:22:25;;;;;;;14.35;4.55;;;5.90;99.90;;;;;;5007917;28;20496;-60
2023/02/10 10:25:16;;;;;;;11.05;4.82;;;6.00;99.90;;;;;;5010506;28;20441;-61
2023/02/10 10:28:06;;;;;;;9.77;3.75;;;6.10;99.90;;;;;;5013006;28;20314;-58
2023/02/10 10:30:46;;;;;;;9.73;4.25;;;6.10;99.90;;;;;;5010298;28;20055;-61
2023/02/10 10:33:28;;;;;;;9.65;3.70;;;6.20;99.90;;;;;;5025482;28;20049;-61
2023/02/10 10:35:56;;;;;;;17.13;3.70;;;6.20;99.90;;;;;;5010488;28;20068;-61
2023/02/10 10:38:29;;;;;;;10.68;4.32;;;6.30;99.90;;;;;;5010196;28;20176;-60
2023/02/10 10:40:59;;;;;;;13.07;5.47;;;6.40;99.90;;;;;;5027782;28;20449;-61
2023/02/10 10:43:27;;;;;;;15.35;4.65;;;6.40;99.90;;;;;;5006332;28;20582;-60
2023/02/10 10:45:58;;;;;;;21.25;5.95;;;6.50;99.90;;;;;;4993981;28;20124;-61
2023/02/10 10:48:26;;;;;;;16.27;5.63;;;6.50;99.90;;;;;;4990119;28;20551;-60
2023/02/10 10:50:58;;;;;;;15.15;5.32;;;6.50;99.90;;;;;;4990914;28;20158;-61
2023/02/10 10:53:35;;;;;;;15.32;4.90;;;6.60;99.90;;;;;;4990228;28;20128;-61
2023/02/10 10:56:04;;;;;;;13.13;5.50;;;6.70;99.90;;;;;;5006720;28;20064;-61
2023/02/10 10:58:39;;;;;;;13.95;5.47;;;6.80;99.90;;;;;;4973957;28;20482;-60
2023/02/10 11:01:06;;;;;;;11.95;4.97;;;6.80;99.90;;;;;;5007611;28;20509;-61
2023/02/10 11:03:33;;;;;;;15.32;5.07;;;6.90;99.90;;;;;;5007447;28;20240;-61
2023/02/10 11:06:07;;;;;;;17.83;5.28;;;6.90;99.90;;;;;;5008042;28;20061;-61
2023/02/10 11:08:43;;;;;;;;;;;7.00;99.90;;;;;;5008033;28;20048;-61
2023/02/10 11:11:14;;;;;;;11.15;4.90;;;7.10;99.90;;;;;;4988082;28;19928;-61
2023/02/10 11:14:01;;;;;;;20.48;4.88;;;7.30;99.90;;;;;;5004636;28;20049;-61
2023/02/10 11:16:28;;;;;;;22.02;6.18;;;7.40;99.90;;;;;;5006637;28;20409;-60
2023/02/10 11:18:57;;;;;;;12.65;4.20;;;7.40;99.90;;;;;;5006411;28;20101;-61
2023/02/10 11:21:37;;;;;;;19.13;4.95;;;7.50;99.90;;;;;;5007831;28;20053;-60
2023/02/10 11:24:18;;;;;;;20.45;4.47;;;7.50;99.90;;;;;;5005573;28;20631;-61
2023/02/10 11:27:15;;;;;;;14.52;3.97;;;7.60;99.90;;;;;;4986935;28;20050;-60
2023/02/10 11:29:47;;;;;;;24.92;4.22;;;7.60;99.90;;;;;;5006663;28;20042;-61
2023/02/10 11:32:39;;;;;;;21.23;5.90;;;7.60;99.90;;;;;;5010663;28;20054;-61
2023/02/10 11:35:06;;;;;;;13.98;3.83;;;7.60;99.90;;;;;;5001599;28;20445;-61
2023/02/10 11:37:36;;;;;;;20.40;4.20;;;7.60;99.90;;;;;;5011531;28;20144;-62
2023/02/10 11:40:25;;;;;;;20.58;4.25;;;7.60;99.90;;;;;;5011131;28;20071;-61
2023/02/10 11:42:54;;;;;;;18.30;4.28;;;7.60;99.90;;;;;;5010819;28;20173;-61
2023/02/10 11:45:25;;;;;;;18.65;4.07;;;7.70;99.90;;;;;;5008890;28;20050;-61
2023/02/10 11:48:16;;;;;;;22.35;4.20;;;7.80;99.90;;;;;;5025727;28;20049;-61
2023/02/10 11:50:43;;;;;;;19.25;3.25;;;7.80;99.90;;;;;;4993447;28;20046;-61
2023/02/10 11:53:30;;;;;;;18.85;3.55;;;7.80;99.90;;;;;;5009936;28;20132;-61
2023/02/10 11:56:04;;;;;;;27.35;4.63;;;7.70;99.90;;;;;;5010482;28;20068;-61
2023/02/10 11:58:58;;;;;;;14.90;3.78;;;7.60;99.90;;;;;;5013341;28;20087;-60
2023/02/10 12:01:44;;;;;;;21.58;4.85;;;7.60;99.90;;;;;;5030511;28;20049;-61
2023/02/10 12:04:33;;;;;;;20.23;4.28;;;7.60;99.90;;;;;;5014599;28;20136;-61
2023/02/10 12:07:06;;;;;;;26.00;3.70;;;7.70;99.90;;;;;;5006075;28;20135;-61
2023/02/10 12:09:54;;;;;;;18.40;3.55;;;7.70;99.90;;;;;;5030289;28;20095;-61
2023/02/10 12:12:36;;;;;;;15.43;3.33;;;7.70;99.90;;;;;;5013347;28;20057;-61
2023/02/10 12:15:18;;;;;;;30.48;3.80;;;7.80;99.90;;;;;;5030223;28;20041;-61
2023/02/10 12:18:26;;;;;;;22.05;4.00;;;7.80;99.90;;;;;;5030445;28;20511;-61
2023/02/10 12:21:02;;;;;;;20.35;3.38;;;7.90;99.90;;;;;;5017286;28;20373;-62
2023/02/10 12:23:47;;;;;;;14.32;2.20;;;8.00;99.90;;;;;;5010564;28;20065;-62
2023/02/10 12:26:26;;;;;;;13.43;2.78;;;8.10;99.90;;;;;;5014168;28;20083;-61
2023/02/10 12:29:18;;;;;;;25.02;3.33;;;8.00;99.90;;;;;;5030743;28;20049;-62
2023/02/10 12:32:04;;;;;;;22.73;4.13;;;8.10;99.90;;;;;;5029993;28;20091;-62
2023/02/10 12:34:50;;;;;;;26.65;4.93;;;8.10;99.90;;;;;;5012811;28;20049;-61
2023/02/10 12:37:38;;;;;;;13.05;3.42;;;8.20;99.90;;;;;;5009756;28;20077;-60
2023/02/10 12:40:18;;;;;;;21.58;4.07;;;8.20;99.90;;;;;;5030043;28;20588;-60
2023/02/10 12:42:52;;;;;;;11.13;2.80;;;8.20;99.90;;;;;;5028662;28;20527;-61
2023/02/10 12:45:35;;;;;;;12.80;3.28;;;8.30;99.90;;;;;;5012111;28;20507;-61
2023/02/10 12:48:14;;;;;;;16.67;2.58;;;8.30;99.90;;;;;;5030071;28;20476;-61
2023/02/10 12:51:14;;;;;;;22.92;4.10;;;8.30;99.90;;;;;;5029894;28;20046;-62
2023/02/10 12:53:45;;;;;;;18.52;5.00;;;8.30;99.90;;;;;;5017261;28;20507;-61
2023/02/10 12:56:15;;;;;;;;;;;8.30;99.90;;;;;;4996119;28;20049;-63
2023/02/10 12:58:45;;;;;;;17.67;4.50;;;8.40;99.90;;;;;;5030439;28;20010;-62
2023/02/10 13:01:30;;;;;;;19.27;3.47;;;8.30;99.90;;;;;;5030003;28;20041;-62